sensor_id;sensor_type;location;lat;lon;timestamp;temperature;humidity
67603;DHT22;54417;47.454;18.918;2023-02-02T00:02:05;3.90;88.90
67603;DHT22;54417;47.454;18.918;2023-02-02T00:07:29;3.97;87.95
67603;DHT22;54417;47.454;18.918;2023-02-02T00:12:54;3.97;88.47
67603;DHT22;54417;47.454;18.918;2023-02-02T00:18:19;4.05;86.54
67603;DHT22;54417;47.454;18.918;2023-02-02T00:23:43;4.18;85.16
67603;DHT22;54417;47.454;18.918;2023-02-02T00:29:13;4.26;84.21
67603;DHT22;54417;47.454;18.918;2023-02-02T00:34:37;4.26;84.58
67603;DHT22;54417;47.454;18.918;2023-02-02T00:40:01;4.45;81.43
67603;DHT22;54417;47.454;18.918;2023-02-02T00:45:26;4.61;80.84
67603;DHT22;54417;47.454;18.918;2023-02-02T00:50:51;4.73;80.95
67603;DHT22;54417;47.454;18.918;2023-02-02T00:56:15;4.60;82.03
67603;DHT22;54417;47.454;18.918;2023-02-02T01:01:40;4.48;83.11
67603;DHT22;54417;47.454;18.918;2023-02-02T01:07:04;4.25;83.88
67603;DHT22;54417;47.454;18.918;2023-02-02T01:12:28;4.13;84.76
67603;DHT22;54417;47.454;18.918;2023-02-02T01:17:53;3.92;86.16
67603;DHT22;54417;47.454;18.918;2023-02-02T01:23:17;3.70;87.28
67603;DHT22;54417;47.454;18.918;2023-02-02T01:28:41;3.54;88.17
67603;DHT22;54417;47.454;18.918;2023-02-02T01:34:06;3.43;88.76
67603;DHT22;54417;47.454;18.918;2023-02-02T01:39:31;3.29;89.33
67603;DHT22;54417;47.454;18.918;2023-02-02T01:45:13;3.26;89.51
67603;DHT22;54417;47.454;18.918;2023-02-02T01:50:40;3.19;89.77
67603;DHT22;54417;47.454;18.918;2023-02-02T01:56:06;3.13;89.89
67603;DHT22;54417;47.454;18.918;2023-02-02T02:01:31;3.11;90.01
67603;DHT22;54417;47.454;18.918;2023-02-02T02:06:56;3.05;90.06
67603;DHT22;54417;47.454;18.918;2023-02-02T02:12:21;2.98;90.16
67603;DHT22;54417;47.454;18.918;2023-02-02T02:18:08;2.96;90.20
67603;DHT22;54417;47.454;18.918;2023-02-02T02:30:07;2.96;90.60
67603;DHT22;54417;47.454;18.918;2023-02-02T02:35:41;2.91;90.51
67603;DHT22;54417;47.454;18.918;2023-02-02T02:41:10;2.91;90.56
67603;DHT22;54417;47.454;18.918;2023-02-02T02:46:36;2.98;90.42
67603;DHT22;54417;47.454;18.918;2023-02-02T02:52:02;2.91;90.61
67603;DHT22;54417;47.454;18.918;2023-02-02T02:57:40;2.85;90.69
67603;DHT22;54417;47.454;18.918;2023-02-02T03:03:13;2.80;90.86
67603;DHT22;54417;47.454;18.918;2023-02-02T03:08:44;2.88;90.65
67603;DHT22;54417;47.454;18.918;2023-02-02T03:14:08;2.91;90.46
67603;DHT22;54417;47.454;18.918;2023-02-02T03:19:32;2.96;90.15
67603;DHT22;54417;47.454;18.918;2023-02-02T03:24:57;2.87;90.20
67603;DHT22;54417;47.454;18.918;2023-02-02T03:30:21;2.87;90.12
67603;DHT22;54417;47.454;18.918;2023-02-02T03:35:45;2.81;90.17
67603;DHT22;54417;47.454;18.918;2023-02-02T03:41:10;2.61;90.31
67603;DHT22;54417;47.454;18.918;2023-02-02T03:46:34;2.47;90.55
67603;DHT22;54417;47.454;18.918;2023-02-02T03:51:58;2.46;90.66
67603;DHT22;54417;47.454;18.918;2023-02-02T03:57:24;2.41;90.46
67603;DHT22;54417;47.454;18.918;2023-02-02T04:02:48;2.40;90.29
67603;DHT22;54417;47.454;18.918;2023-02-02T04:08:12;2.17;90.60
67603;DHT22;54417;47.454;18.918;2023-02-02T04:13:37;2.03;90.79
67603;DHT22;54417;47.454;18.918;2023-02-02T04:19:04;1.88;91.04
67603;DHT22;54417;47.454;18.918;2023-02-02T04:24:28;1.72;91.38
67603;DHT22;54417;47.454;18.918;2023-02-02T04:29:53;1.67;91.38
67603;DHT22;54417;47.454;18.918;2023-02-02T04:35:17;1.65;91.29
67603;DHT22;54417;47.454;18.918;2023-02-02T04:40:43;1.58;91.47
67603;DHT22;54417;47.454;18.918;2023-02-02T04:46:08;1.52;91.61
67603;DHT22;54417;47.454;18.918;2023-02-02T04:51:33;1.47;91.75
67603;DHT22;54417;47.454;18.918;2023-02-02T04:56:57;1.43;91.77
67603;DHT22;54417;47.454;18.918;2023-02-02T05:02:22;1.40;91.78
67603;DHT22;54417;47.454;18.918;2023-02-02T05:07:46;1.28;91.88
67603;DHT22;54417;47.454;18.918;2023-02-02T05:13:10;1.28;91.99
67603;DHT22;54417;47.454;18.918;2023-02-02T05:18:35;1.26;91.97
67603;DHT22;54417;47.454;18.918;2023-02-02T05:23:58;1.20;92.08
67603;DHT22;54417;47.454;18.918;2023-02-02T05:29:24;1.13;92.08
67603;DHT22;54417;47.454;18.918;2023-02-02T05:34:49;1.09;92.00
67603;DHT22;54417;47.454;18.918;2023-02-02T05:40:13;1.07;92.06
67603;DHT22;54417;47.454;18.918;2023-02-02T05:45:37;1.04;91.89
67603;DHT22;54417;47.454;18.918;2023-02-02T05:51:04;1.09;91.90
67603;DHT22;54417;47.454;18.918;2023-02-02T05:56:29;1.06;91.85
67603;DHT22;54417;47.454;18.918;2023-02-02T06:01:52;1.12;91.73
67603;DHT22;54417;47.454;18.918;2023-02-02T06:07:18;1.00;91.89
67603;DHT22;54417;47.454;18.918;2023-02-02T06:12:42;1.01;91.95
67603;DHT22;54417;47.454;18.918;2023-02-02T06:18:05;0.95;91.93
67603;DHT22;54417;47.454;18.918;2023-02-02T06:23:31;0.92;91.88
67603;DHT22;54417;47.454;18.918;2023-02-02T06:28:55;0.86;91.91
67603;DHT22;54417;47.454;18.918;2023-02-02T06:34:19;0.90;91.92
67603;DHT22;54417;47.454;18.918;2023-02-02T06:39:44;1.07;91.59
67603;DHT22;54417;47.454;18.918;2023-02-02T06:45:09;1.23;91.22
67603;DHT22;54417;47.454;18.918;2023-02-02T06:50:33;1.34;90.88
67603;DHT22;54417;47.454;18.918;2023-02-02T06:55:59;1.40;90.80
67603;DHT22;54417;47.454;18.918;2023-02-02T07:01:23;1.43;90.85
67603;DHT22;54417;47.454;18.918;2023-02-02T07:06:47;1.50;90.82
67603;DHT22;54417;47.454;18.918;2023-02-02T07:12:12;1.64;90.44
67603;DHT22;54417;47.454;18.918;2023-02-02T07:17:36;1.81;89.90
67603;DHT22;54417;47.454;18.918;2023-02-02T07:23:01;2.05;89.01
67603;DHT22;54417;47.454;18.918;2023-02-02T07:28:27;2.27;88.42
67603;DHT22;54417;47.454;18.918;2023-02-02T07:33:51;2.51;87.29
67603;DHT22;54417;47.454;18.918;2023-02-02T07:39:15;2.71;86.59
67603;DHT22;54417;47.454;18.918;2023-02-02T07:44:41;2.88;85.64
67603;DHT22;54417;47.454;18.918;2023-02-02T07:50:05;3.09;85.63
67603;DHT22;54417;47.454;18.918;2023-02-02T07:55:29;3.34;84.69
67603;DHT22;54417;47.454;18.918;2023-02-02T08:00:54;3.66;83.16
67603;DHT22;54417;47.454;18.918;2023-02-02T08:06:23;3.90;82.76
67603;DHT22;54417;47.454;18.918;2023-02-02T08:11:47;3.98;81.19
67603;DHT22;54417;47.454;18.918;2023-02-02T08:17:13;4.21;81.42
67603;DHT22;54417;47.454;18.918;2023-02-02T08:22:36;4.50;79.89
67603;DHT22;54417;47.454;18.918;2023-02-02T08:28:00;4.87;79.81
67603;DHT22;54417;47.454;18.918;2023-02-02T08:33:25;5.04;76.56
67603;DHT22;54417;47.454;18.918;2023-02-02T08:38:50;4.83;76.46
67603;DHT22;54417;47.454;18.918;2023-02-02T08:44:14;4.94;75.31
67603;DHT22;54417;47.454;18.918;2023-02-02T08:49:42;5.11;75.99
67603;DHT22;54417;47.454;18.918;2023-02-02T08:55:06;5.55;73.80
67603;DHT22;54417;47.454;18.918;2023-02-02T09:00:30;5.81;72.16
67603;DHT22;54417;47.454;18.918;2023-02-02T09:05:55;5.96;72.00
67603;DHT22;54417;47.454;18.918;2023-02-02T09:11:19;6.07;72.09
67603;DHT22;54417;47.454;18.918;2023-02-02T09:16:43;6.22;70.91
67603;DHT22;54417;47.454;18.918;2023-02-02T09:22:08;6.18;69.66
67603;DHT22;54417;47.454;18.918;2023-02-02T09:27:36;6.11;70.36
67603;DHT22;54417;47.454;18.918;2023-02-02T09:33:00;6.08;69.52
67603;DHT22;54417;47.454;18.918;2023-02-02T09:38:25;6.17;70.88
67603;DHT22;54417;47.454;18.918;2023-02-02T09:43:52;6.36;70.46
67603;DHT22;54417;47.454;18.918;2023-02-02T09:49:23;6.59;69.60
67603;DHT22;54417;47.454;18.918;2023-02-02T09:54:50;6.46;69.45
67603;DHT22;54417;47.454;18.918;2023-02-02T10:00:23;6.65;67.71
67603;DHT22;54417;47.454;18.918;2023-02-02T10:05:53;7.21;67.38
67603;DHT22;54417;47.454;18.918;2023-02-02T10:11:28;7.20;66.09
67603;DHT22;54417;47.454;18.918;2023-02-02T10:16:54;7.07;65.59
67603;DHT22;54417;47.454;18.918;2023-02-02T10:22:22;7.08;66.71
67603;DHT22;54417;47.454;18.918;2023-02-02T10:27:55;7.01;66.51
67603;DHT22;54417;47.454;18.918;2023-02-02T10:33:31;7.18;66.88
67603;DHT22;54417;47.454;18.918;2023-02-02T10:39:01;7.08;66.23
67603;DHT22;54417;47.454;18.918;2023-02-02T10:44:34;7.31;67.16
67603;DHT22;54417;47.454;18.918;2023-02-02T10:50:12;7.52;66.64
67603;DHT22;54417;47.454;18.918;2023-02-02T10:55:39;7.56;64.38
67603;DHT22;54417;47.454;18.918;2023-02-02T11:01:07;7.47;65.72
67603;DHT22;54417;47.454;18.918;2023-02-02T11:06:33;7.42;65.82
67603;DHT22;54417;47.454;18.918;2023-02-02T11:12:17;7.35;65.54
67603;DHT22;54417;47.454;18.918;2023-02-02T11:17:44;7.20;66.55
67603;DHT22;54417;47.454;18.918;2023-02-02T11:23:16;6.69;66.18
67603;DHT22;54417;47.454;18.918;2023-02-02T11:28:40;6.64;67.59
67603;DHT22;54417;47.454;18.918;2023-02-02T11:34:15;6.64;67.72
67603;DHT22;54417;47.454;18.918;2023-02-02T11:39:42;6.69;67.31
67603;DHT22;54417;47.454;18.918;2023-02-02T11:45:14;6.71;67.31
67603;DHT22;54417;47.454;18.918;2023-02-02T11:50:44;6.73;66.78
67603;DHT22;54417;47.454;18.918;2023-02-02T11:56:16;6.79;66.27
67603;DHT22;54417;47.454;18.918;2023-02-02T12:01:41;7.08;66.96
67603;DHT22;54417;47.454;18.918;2023-02-02T12:07:20;7.32;65.90
67603;DHT22;54417;47.454;18.918;2023-02-02T12:12:53;7.61;65.08
67603;DHT22;54417;47.454;18.918;2023-02-02T12:18:31;7.61;65.05
67603;DHT22;54417;47.454;18.918;2023-02-02T12:24:15;7.17;65.34
67603;DHT22;54417;47.454;18.918;2023-02-02T12:42:06;6.80;66.84
67603;DHT22;54417;47.454;18.918;2023-02-02T12:47:39;6.77;66.84
67603;DHT22;54417;47.454;18.918;2023-02-02T12:53:19;6.83;67.16
67603;DHT22;54417;47.454;18.918;2023-02-02T12:58:52;7.03;66.58
67603;DHT22;54417;47.454;18.918;2023-02-02T13:04:36;6.85;67.10
67603;DHT22;54417;47.454;18.918;2023-02-02T13:10:25;6.73;67.66
67603;DHT22;54417;47.454;18.918;2023-02-02T13:15:54;6.66;68.16
67603;DHT22;54417;47.454;18.918;2023-02-02T13:21:20;6.80;68.15
67603;DHT22;54417;47.454;18.918;2023-02-02T13:26:47;6.66;68.34
67603;DHT22;54417;47.454;18.918;2023-02-02T13:32:20;6.56;69.35
67603;DHT22;54417;47.454;18.918;2023-02-02T13:37:50;6.45;68.99
67603;DHT22;54417;47.454;18.918;2023-02-02T13:43:21;6.31;69.92
67603;DHT22;54417;47.454;18.918;2023-02-02T13:48:56;6.13;70.10
67603;DHT22;54417;47.454;18.918;2023-02-02T14:00:18;5.67;71.95
67603;DHT22;54417;47.454;18.918;2023-02-02T14:06:01;5.60;72.86
67603;DHT22;54417;47.454;18.918;2023-02-02T14:11:28;5.58;72.45
67603;DHT22;54417;47.454;18.918;2023-02-02T14:16:52;5.70;72.13
67603;DHT22;54417;47.454;18.918;2023-02-02T14:22:38;5.94;71.12
67603;DHT22;54417;47.454;18.918;2023-02-02T14:28:08;6.04;70.63
67603;DHT22;54417;47.454;18.918;2023-02-02T14:33:38;5.96;71.02
67603;DHT22;54417;47.454;18.918;2023-02-02T14:39:18;5.77;72.42
67603;DHT22;54417;47.454;18.918;2023-02-02T14:45:22;5.58;72.42
67603;DHT22;54417;47.454;18.918;2023-02-02T14:50:47;5.45;72.61
67603;DHT22;54417;47.454;18.918;2023-02-02T14:56:16;5.25;73.53
67603;DHT22;54417;47.454;18.918;2023-02-02T15:01:40;5.01;74.58
67603;DHT22;54417;47.454;18.918;2023-02-02T15:07:35;4.88;75.14
67603;DHT22;54417;47.454;18.918;2023-02-02T15:13:04;4.77;75.86
67603;DHT22;54417;47.454;18.918;2023-02-02T15:18:32;4.63;76.61
67603;DHT22;54417;47.454;18.918;2023-02-02T15:24:00;4.53;76.75
67603;DHT22;54417;47.454;18.918;2023-02-02T15:29:32;4.43;77.24
67603;DHT22;54417;47.454;18.918;2023-02-02T15:35:00;4.29;77.50
67603;DHT22;54417;47.454;18.918;2023-02-02T15:40:27;4.18;77.58
67603;DHT22;54417;47.454;18.918;2023-02-02T15:45:54;4.03;78.11
67603;DHT22;54417;47.454;18.918;2023-02-02T15:51:23;3.85;79.01
67603;DHT22;54417;47.454;18.918;2023-02-02T15:56:47;3.71;79.60
67603;DHT22;54417;47.454;18.918;2023-02-02T16:02:20;3.64;79.71
67603;DHT22;54417;47.454;18.918;2023-02-02T16:07:45;3.54;79.92
67603;DHT22;54417;47.454;18.918;2023-02-02T16:13:27;3.47;80.33
67603;DHT22;54417;47.454;18.918;2023-02-02T16:19:05;3.44;80.33
67603;DHT22;54417;47.454;18.918;2023-02-02T16:24:36;3.32;81.04
67603;DHT22;54417;47.454;18.918;2023-02-02T16:30:06;3.29;81.20
67603;DHT22;54417;47.454;18.918;2023-02-02T16:35:32;3.30;81.16
67603;DHT22;54417;47.454;18.918;2023-02-02T16:41:04;3.18;81.76
67603;DHT22;54417;47.454;18.918;2023-02-02T16:46:40;3.12;81.74
67603;DHT22;54417;47.454;18.918;2023-02-02T16:52:14;3.09;81.88
67603;DHT22;54417;47.454;18.918;2023-02-02T16:57:39;3.13;81.85
67603;DHT22;54417;47.454;18.918;2023-02-02T17:03:08;3.20;81.50
67603;DHT22;54417;47.454;18.918;2023-02-02T17:08:37;3.11;81.66
67603;DHT22;54417;47.454;18.918;2023-02-02T17:14:17;3.11;81.33
67603;DHT22;54417;47.454;18.918;2023-02-02T17:19:42;3.22;81.25
67603;DHT22;54417;47.454;18.918;2023-02-02T17:25:13;3.33;80.72
67603;DHT22;54417;47.454;18.918;2023-02-02T17:30:39;3.46;80.34
67603;DHT22;54417;47.454;18.918;2023-02-02T17:36:04;3.61;79.93
67603;DHT22;54417;47.454;18.918;2023-02-02T17:41:35;3.78;79.33
67603;DHT22;54417;47.454;18.918;2023-02-02T17:47:00;3.88;78.95
67603;DHT22;54417;47.454;18.918;2023-02-02T17:52:24;3.95;78.89
67603;DHT22;54417;47.454;18.918;2023-02-02T17:57:50;3.95;79.21
67603;DHT22;54417;47.454;18.918;2023-02-02T18:03:16;3.87;79.53
67603;DHT22;54417;47.454;18.918;2023-02-02T18:08:42;3.95;78.96
67603;DHT22;54417;47.454;18.918;2023-02-02T18:14:08;3.99;79.31
67603;DHT22;54417;47.454;18.918;2023-02-02T18:19:35;3.90;79.39
67603;DHT22;54417;47.454;18.918;2023-02-02T18:25:00;3.71;80.41
67603;DHT22;54417;47.454;18.918;2023-02-02T18:30:27;3.61;80.98
67603;DHT22;54417;47.454;18.918;2023-02-02T18:35:51;3.69;80.81
67603;DHT22;54417;47.454;18.918;2023-02-02T18:41:16;3.61;81.26
67603;DHT22;54417;47.454;18.918;2023-02-02T18:46:42;3.60;81.35
67603;DHT22;54417;47.454;18.918;2023-02-02T18:52:06;3.49;81.61
67603;DHT22;54417;47.454;18.918;2023-02-02T18:57:30;3.37;82.04
67603;DHT22;54417;47.454;18.918;2023-02-02T19:02:55;3.15;82.90
67603;DHT22;54417;47.454;18.918;2023-02-02T19:08:19;3.13;83.02
67603;DHT22;54417;47.454;18.918;2023-02-02T19:13:43;3.08;83.21
67603;DHT22;54417;47.454;18.918;2023-02-02T19:19:17;3.05;83.67
67603;DHT22;54417;47.454;18.918;2023-02-02T19:24:43;2.92;84.16
67603;DHT22;54417;47.454;18.918;2023-02-02T19:30:15;2.96;84.35
67603;DHT22;54417;47.454;18.918;2023-02-02T19:35:46;2.91;84.83
67603;DHT22;54417;47.454;18.918;2023-02-02T19:41:17;2.74;85.30
67603;DHT22;54417;47.454;18.918;2023-02-02T19:46:47;2.60;85.75
67603;DHT22;54417;47.454;18.918;2023-02-02T19:52:18;2.51;86.23
67603;DHT22;54417;47.454;18.918;2023-02-02T19:57:44;2.46;86.39
67603;DHT22;54417;47.454;18.918;2023-02-02T20:03:10;2.41;86.45
67603;DHT22;54417;47.454;18.918;2023-02-02T20:08:38;2.33;86.94
67603;DHT22;54417;47.454;18.918;2023-02-02T20:14:20;2.44;86.87
67603;DHT22;54417;47.454;18.918;2023-02-02T20:19:49;2.34;86.87
67603;DHT22;54417;47.454;18.918;2023-02-02T20:25:15;2.32;86.98
67603;DHT22;54417;47.454;18.918;2023-02-02T20:30:39;2.10;87.32
67603;DHT22;54417;47.454;18.918;2023-02-02T20:36:31;2.12;87.83
67603;DHT22;54417;47.454;18.918;2023-02-02T20:41:58;2.20;87.64
67603;DHT22;54417;47.454;18.918;2023-02-02T20:47:22;2.29;87.37
67603;DHT22;54417;47.454;18.918;2023-02-02T20:52:48;2.20;87.69
67603;DHT22;54417;47.454;18.918;2023-02-02T20:58:16;2.07;88.11
67603;DHT22;54417;47.454;18.918;2023-02-02T21:03:46;2.22;87.78
67603;DHT22;54417;47.454;18.918;2023-02-02T21:09:10;2.26;87.72
67603;DHT22;54417;47.454;18.918;2023-02-02T21:14:36;2.29;87.60
67603;DHT22;54417;47.454;18.918;2023-02-02T21:20:03;2.25;87.72
67603;DHT22;54417;47.454;18.918;2023-02-02T21:25:27;2.33;87.39
67603;DHT22;54417;47.454;18.918;2023-02-02T21:30:52;2.38;87.06
67603;DHT22;54417;47.454;18.918;2023-02-02T21:36:27;2.29;87.23
67603;DHT22;54417;47.454;18.918;2023-02-02T21:41:58;2.07;87.68
67603;DHT22;54417;47.454;18.918;2023-02-02T21:47:32;1.92;88.42
67603;DHT22;54417;47.454;18.918;2023-02-02T21:53:12;1.68;88.89
67603;DHT22;54417;47.454;18.918;2023-02-02T21:58:37;1.52;89.20
67603;DHT22;54417;47.454;18.918;2023-02-02T22:04:02;1.41;89.45
67603;DHT22;54417;47.454;18.918;2023-02-02T22:09:27;1.24;89.73
67603;DHT22;54417;47.454;18.918;2023-02-02T22:14:56;1.04;90.15
67603;DHT22;54417;47.454;18.918;2023-02-02T22:20:31;0.92;90.43
67603;DHT22;54417;47.454;18.918;2023-02-02T22:25:56;1.07;90.52
67603;DHT22;54417;47.454;18.918;2023-02-02T22:31:20;1.15;90.15
67603;DHT22;54417;47.454;18.918;2023-02-02T22:36:46;1.04;90.16
67603;DHT22;54417;47.454;18.918;2023-02-02T22:42:10;0.95;90.35
67603;DHT22;54417;47.454;18.918;2023-02-02T22:47:33;0.85;90.28
67603;DHT22;54417;47.454;18.918;2023-02-02T22:52:58;0.79;90.54
67603;DHT22;54417;47.454;18.918;2023-02-02T22:58:23;0.83;90.18
67603;DHT22;54417;47.454;18.918;2023-02-02T23:03:47;0.73;89.85
67603;DHT22;54417;47.454;18.918;2023-02-02T23:09:12;0.75;89.66
67603;DHT22;54417;47.454;18.918;2023-02-02T23:14:36;0.80;89.02
67603;DHT22;54417;47.454;18.918;2023-02-02T23:20:00;0.88;88.37
67603;DHT22;54417;47.454;18.918;2023-02-02T23:25:26;1.07;87.74
67603;DHT22;54417;47.454;18.918;2023-02-02T23:30:50;1.26;86.82
67603;DHT22;54417;47.454;18.918;2023-02-02T23:36:16;1.41;86.48
67603;DHT22;54417;47.454;18.918;2023-02-02T23:41:41;1.33;86.45
67603;DHT22;54417;47.454;18.918;2023-02-02T23:47:05;1.34;86.43
67603;DHT22;54417;47.454;18.918;2023-02-02T23:52:29;1.31;86.35
67603;DHT22;54417;47.454;18.918;2023-02-02T23:57:54;1.34;86.40
